createdAt,value
2023-02-14T00:01:17.940Z,95.71
2023-02-14T00:03:44.502Z,95.94
2023-02-14T00:06:14.631Z,95.92
2023-02-14T00:08:44.702Z,95.77
2023-02-14T00:11:13.208Z,95.25
2023-02-14T00:13:39.845Z,95.04
2023-02-14T00:16:06.537Z,95.56
2023-02-14T00:18:51.904Z,95.38
2023-02-14T00:21:18.402Z,95.60
2023-02-14T00:23:45.265Z,96.15
2023-02-14T00:26:14.980Z,96.05
2023-02-14T00:28:43.480Z,95.98
2023-02-14T00:31:10.492Z,96.31
2023-02-14T00:33:37.412Z,96.35
2023-02-14T00:36:05.380Z,96.99
2023-02-14T00:38:33.758Z,97.10
2023-02-14T00:41:00.569Z,97.05
2023-02-14T00:43:27.197Z,97.45
2023-02-14T00:45:53.699Z,97.30
2023-02-14T00:48:20.289Z,97.42
2023-02-14T00:50:47.242Z,97.98
2023-02-14T00:53:14.834Z,97.80
2023-02-14T00:55:41.837Z,97.80
2023-02-14T00:58:08.340Z,98.52
2023-02-14T01:00:34.835Z,98.23
2023-02-14T01:03:01.397Z,98.44
2023-02-14T01:05:29.140Z,97.82
2023-02-14T01:07:57.395Z,98.20
2023-02-14T01:10:23.847Z,97.56
2023-02-14T01:12:50.973Z,97.16
2023-02-14T01:15:17.576Z,97.12
2023-02-14T01:17:44.075Z,97.55
2023-02-14T01:20:10.782Z,97.60
2023-02-14T01:22:38.003Z,98.01
2023-02-14T01:25:06.559Z,97.64
2023-02-14T01:27:33.189Z,97.46
2023-02-14T01:29:59.663Z,97.63
2023-02-14T01:32:26.796Z,97.48
2023-02-14T01:34:53.377Z,96.91
2023-02-14T01:37:19.832Z,96.60
2023-02-14T01:39:46.312Z,96.90
2023-02-14T01:42:14.568Z,96.64
2023-02-14T01:44:41.306Z,96.56
2023-02-14T01:47:10.368Z,96.58
2023-02-14T01:50:08.073Z,96.35
2023-02-14T01:52:43.845Z,96.21
2023-02-14T01:55:15.440Z,96.26
2023-02-14T01:57:48.013Z,95.91
2023-02-14T02:00:35.193Z,95.71
2023-02-14T02:03:05.431Z,95.58
2023-02-14T02:05:32.183Z,95.18
2023-02-14T02:08:00.397Z,95.43
2023-02-14T02:10:28.364Z,94.96
2023-02-14T02:12:55.541Z,94.73
2023-02-14T02:15:26.074Z,95.19
2023-02-14T02:18:10.269Z,95.02
2023-02-14T02:20:55.570Z,94.74
2023-02-14T02:23:32.149Z,94.94
2023-02-14T02:26:46.216Z,95.26
2023-02-14T02:29:28.064Z,94.70
2023-02-14T02:32:10.060Z,94.68
2023-02-14T02:35:09.132Z,95.29
2023-02-14T02:37:57.684Z,94.90
2023-02-14T02:40:45.632Z,95.03
2023-02-14T02:43:49.690Z,95.58
2023-02-14T02:46:50.198Z,95.83
2023-02-14T02:49:36.563Z,95.84
2023-02-14T02:52:27.453Z,96.06
2023-02-14T02:55:00.364Z,95.92
2023-02-14T02:57:33.561Z,95.45
2023-02-14T03:00:03.493Z,95.65
2023-02-14T03:02:54.800Z,96.13
2023-02-14T03:05:22.343Z,95.91
2023-02-14T03:07:51.002Z,96.01
2023-02-14T03:10:21.902Z,96.30
2023-02-14T03:13:17.985Z,96.45
2023-02-14T03:16:03.311Z,96.01
2023-02-14T03:19:23.753Z,95.75
2023-02-14T03:22:00.813Z,95.69
2023-02-14T03:24:51.805Z,95.94
2023-02-14T03:27:33.120Z,95.79
2023-02-14T03:30:18.015Z,95.94
2023-02-14T03:32:58.117Z,96.08
2023-02-14T03:35:43.659Z,96.35
2023-02-14T03:38:15.503Z,96.23
2023-02-14T03:40:49.401Z,96.56
2023-02-14T03:43:25.340Z,96.18
2023-02-14T03:45:58.158Z,96.68
2023-02-14T03:48:27.519Z,96.86
2023-02-14T03:50:55.548Z,96.74
2023-02-14T03:53:26.713Z,97.08
2023-02-14T03:56:02.234Z,96.88
2023-02-14T03:58:34.587Z,96.99
2023-02-14T04:01:08.553Z,97.23
2023-02-14T04:03:41.201Z,96.97
2023-02-14T04:06:08.482Z,97.36
2023-02-14T04:08:35.255Z,97.27
2023-02-14T04:11:03.822Z,97.05
2023-02-14T04:13:30.338Z,96.93
2023-02-14T04:15:57.225Z,96.67
2023-02-14T04:18:42.331Z,96.79
2023-02-14T04:21:08.807Z,96.61
2023-02-14T04:23:35.329Z,96.55
2023-02-14T04:26:03.662Z,96.46
2023-02-14T04:28:30.755Z,96.63
2023-02-14T04:31:00.894Z,96.47
2023-02-14T04:33:28.453Z,96.72
2023-02-14T04:35:54.892Z,96.79
2023-02-14T04:38:21.615Z,96.73
2023-02-14T04:40:51.963Z,97.00
2023-02-14T04:43:19.250Z,97.38
2023-02-14T04:45:46.959Z,97.18
2023-02-14T04:48:13.461Z,97.33
2023-02-14T04:50:39.928Z,97.16
2023-02-14T04:53:06.420Z,97.26
2023-02-14T04:55:32.915Z,97.01
2023-02-14T04:57:59.343Z,97.20
2023-02-14T05:00:26.080Z,97.47
2023-02-14T05:02:52.613Z,97.33
2023-02-14T05:05:19.138Z,97.80
2023-02-14T05:07:47.818Z,97.45
2023-02-14T05:10:14.952Z,97.64
2023-02-14T05:12:41.658Z,97.77
2023-02-14T05:15:09.073Z,97.88
2023-02-14T05:17:36.183Z,97.97
2023-02-14T05:20:04.361Z,98.37
2023-02-14T05:22:30.951Z,98.05
2023-02-14T05:24:57.615Z,98.79
2023-02-14T05:27:24.292Z,98.61
2023-02-14T05:29:50.836Z,98.80
2023-02-14T05:32:17.758Z,98.93
2023-02-14T05:34:44.274Z,99.06
2023-02-14T05:37:10.761Z,99.64
2023-02-14T05:39:37.474Z,99.17
2023-02-14T05:42:04.108Z,99.22
2023-02-14T05:44:30.688Z,99.23
2023-02-14T05:46:57.524Z,99.34
2023-02-14T05:49:24.097Z,99.03
2023-02-14T05:51:50.563Z,99.29
2023-02-14T05:54:17.059Z,99.24
2023-02-14T05:56:43.515Z,99.60
2023-02-14T05:59:10.069Z,99.45
2023-02-14T06:01:36.497Z,99.94
2023-02-14T06:04:03.028Z,99.52
2023-02-14T06:06:31.919Z,99.63
2023-02-14T06:08:58.397Z,99.64
2023-02-14T06:11:25.003Z,99.62
2023-02-14T06:13:51.474Z,99.95
2023-02-14T06:16:18.328Z,99.74
2023-02-14T06:18:44.829Z,99.69
2023-02-14T06:21:11.444Z,99.82
2023-02-14T06:23:37.915Z,99.79
2023-02-14T06:26:04.561Z,99.54
2023-02-14T06:28:30.988Z,99.43
2023-02-14T06:30:57.655Z,99.61
2023-02-14T06:33:24.214Z,99.73
2023-02-14T06:35:53.697Z,99.10
2023-02-14T06:38:20.141Z,99.33
2023-02-14T06:40:46.806Z,99.39
2023-02-14T06:43:13.294Z,98.98
2023-02-14T06:45:43.623Z,99.20
2023-02-14T06:48:10.257Z,98.89
2023-02-14T06:50:36.809Z,99.18
2023-02-14T06:53:03.445Z,99.20
2023-02-14T06:55:29.984Z,98.76
2023-02-14T06:57:56.442Z,98.71
2023-02-14T07:00:25.501Z,99.03
2023-02-14T07:02:52.714Z,99.43
2023-02-14T07:05:19.406Z,99.61
2023-02-14T07:07:46.416Z,99.17
2023-02-14T07:10:13.460Z,99.31
2023-02-14T07:12:40.316Z,98.51
2023-02-14T07:15:12.394Z,98.97
2023-02-14T07:17:39.037Z,99.14
2023-02-14T07:20:07.545Z,99.31
2023-02-14T07:22:34.520Z,98.90
2023-02-14T07:25:01.474Z,98.68
2023-02-14T07:27:28.482Z,98.55
2023-02-14T07:29:55.127Z,98.32
2023-02-14T07:32:23.382Z,97.86
2023-02-14T07:34:50.789Z,98.35
2023-02-14T07:37:18.123Z,98.09
2023-02-14T07:39:45.479Z,98.13
2023-02-14T07:42:12.169Z,97.47
2023-02-14T07:44:39.245Z,97.34
2023-02-14T07:47:07.152Z,97.88
2023-02-14T07:49:33.647Z,97.46
2023-02-14T07:52:00.133Z,98.10
2023-02-14T07:54:26.700Z,98.17
2023-02-14T07:56:53.172Z,98.16
2023-02-14T07:59:20.097Z,98.74
2023-02-14T08:01:46.675Z,98.65
2023-02-14T08:04:15.927Z,98.43
2023-02-14T08:06:43.360Z,98.97
2023-02-14T08:09:10.271Z,98.82
2023-02-14T08:11:56.177Z,98.84
2023-02-14T08:14:23.240Z,98.89
2023-02-14T08:16:49.693Z,99.25
2023-02-14T08:19:16.277Z,98.84
2023-02-14T08:21:42.762Z,99.19
2023-02-14T08:24:09.240Z,98.81
2023-02-14T08:26:36.990Z,99.03
2023-02-14T08:29:03.548Z,98.71
2023-02-14T08:31:36.453Z,99.25
2023-02-14T08:34:05.684Z,98.48
2023-02-14T08:36:32.962Z,99.03
2023-02-14T08:38:59.452Z,98.31
2023-02-14T08:41:25.966Z,98.07
2023-02-14T08:43:52.583Z,97.96
2023-02-14T08:46:19.416Z,98.33
2023-02-14T08:48:46.105Z,97.65
2023-02-14T08:51:14.516Z,97.48
2023-02-14T08:53:41.955Z,97.18
2023-02-14T08:56:11.489Z,97.20
2023-02-14T08:58:38.792Z,97.02
2023-02-14T09:01:23.737Z,95.92
2023-02-14T09:03:50.552Z,95.88
2023-02-14T09:06:17.824Z,96.31
2023-02-14T09:08:44.972Z,96.27
2023-02-14T09:11:14.842Z,95.90
2023-02-14T09:13:45.220Z,94.80
2023-02-14T09:16:13.073Z,94.94
2023-02-14T09:18:40.216Z,95.08
2023-02-14T09:21:09.367Z,94.95
2023-02-14T09:23:36.031Z,94.82
2023-02-14T09:26:06.222Z,94.98
2023-02-14T09:28:33.208Z,95.14
2023-02-14T09:31:09.070Z,94.49
2023-02-14T09:33:35.640Z,94.37
2023-02-14T09:36:13.979Z,94.63
2023-02-14T09:38:40.463Z,94.83
2023-02-14T09:41:09.398Z,94.34
2023-02-14T09:43:44.850Z,93.57
2023-02-14T09:46:16.084Z,94.13
2023-02-14T09:48:47.238Z,93.78
2023-02-14T09:51:20.270Z,93.35
2023-02-14T09:54:01.622Z,93.31
2023-02-14T09:56:51.686Z,94.11
2023-02-14T09:59:29.509Z,93.95
2023-02-14T10:02:29.689Z,93.18
2023-02-14T10:05:15.062Z,93.14
2023-02-14T10:07:58.227Z,93.32
2023-02-14T10:10:41.429Z,93.10
2023-02-14T10:13:33.514Z,92.85
2023-02-14T10:16:05.072Z,92.59
2023-02-14T10:18:46.122Z,92.69
2023-02-14T10:21:24.646Z,92.54
2023-02-14T10:23:58.121Z,92.09
2023-02-14T10:26:38.177Z,90.92
2023-02-14T10:29:08.933Z,91.12
2023-02-14T10:32:01.728Z,90.73
2023-02-14T10:34:37.462Z,90.68
2023-02-14T10:37:11.198Z,89.58
2023-02-14T10:40:16.472Z,89.32
2023-02-14T10:43:05.747Z,89.92
2023-02-14T10:45:45.509Z,90.36
2023-02-14T10:48:22.590Z,89.41
2023-02-14T10:51:03.761Z,89.53
2023-02-14T10:53:59.713Z,89.32
2023-02-14T10:56:38.572Z,88.86
2023-02-14T10:59:18.673Z,88.65
2023-02-14T11:01:46.001Z,88.81
2023-02-14T11:04:15.519Z,88.68
2023-02-14T11:06:42.103Z,89.00
2023-02-14T11:09:11.001Z,89.46
2023-02-14T11:11:45.741Z,89.79
2023-02-14T11:14:23.846Z,89.66
2023-02-14T11:16:51.979Z,89.62
2023-02-14T11:19:26.325Z,89.89
2023-02-14T11:21:57.907Z,90.91
2023-02-14T11:24:38.178Z,91.31
2023-02-14T11:27:10.617Z,92.29
2023-02-14T11:29:44.931Z,92.98
2023-02-14T11:32:20.726Z,93.97
2023-02-14T11:35:18.434Z,94.37
2023-02-14T11:37:53.635Z,95.11
2023-02-14T11:40:29.118Z,95.75
2023-02-14T11:43:13.433Z,96.04
2023-02-14T11:45:43.095Z,96.48
2023-02-14T11:48:22.398Z,96.74
2023-02-14T11:51:01.252Z,97.03
2023-02-14T11:53:40.058Z,96.71
2023-02-14T11:56:06.850Z,97.01
2023-02-14T11:58:36.475Z,97.29
2023-02-14T12:01:04.100Z,97.59
2023-02-14T12:03:40.130Z,97.97
2023-02-14T12:06:06.713Z,97.81
2023-02-14T12:08:33.295Z,97.99
2023-02-14T12:11:17.836Z,97.71
2023-02-14T12:13:52.194Z,97.49
2023-02-14T12:16:28.261Z,97.34
2023-02-14T12:19:01.197Z,97.20
2023-02-14T12:21:30.608Z,96.68
2023-02-14T12:24:03.389Z,96.65
2023-02-14T12:26:42.101Z,96.31
2023-02-14T12:29:34.927Z,96.34
2023-02-14T12:32:13.240Z,97.12
2023-02-14T12:34:39.914Z,96.77
2023-02-14T12:37:12.078Z,96.43
2023-02-14T12:39:56.968Z,95.94
2023-02-14T12:42:44.871Z,95.95
2023-02-14T12:45:29.501Z,96.28
2023-02-14T12:48:07.690Z,95.78
2023-02-14T12:51:05.989Z,95.04
2023-02-14T12:53:48.612Z,94.73
2023-02-14T12:56:34.099Z,93.75
2023-02-14T12:59:07.443Z,93.86
2023-02-14T13:01:43.067Z,93.03
2023-02-14T13:04:40.830Z,93.08
2023-02-14T13:07:29.669Z,93.25
2023-02-14T13:10:02.426Z,92.24
2023-02-14T13:12:35.102Z,92.16
2023-02-14T13:15:19.112Z,91.43
2023-02-14T13:18:03.207Z,91.79
2023-02-14T13:20:53.514Z,91.80
2023-02-14T13:23:42.056Z,90.97
2023-02-14T13:26:17.877Z,91.10
2023-02-14T13:28:55.506Z,91.69
2023-02-14T13:31:22.537Z,91.50
2023-02-14T13:33:54.064Z,91.86
2023-02-14T13:36:21.007Z,92.14
2023-02-14T13:41:23.863Z,92.62
2023-02-14T13:43:56.374Z,92.65
2023-02-14T13:46:32.219Z,92.35
2023-02-14T13:49:05.678Z,92.47
2023-02-14T13:51:48.921Z,92.15
2023-02-14T13:54:43.006Z,92.53
2023-02-14T13:57:34.030Z,92.99
2023-02-14T14:00:19.012Z,93.21
2023-02-14T14:02:53.066Z,92.90
2023-02-14T14:05:42.681Z,93.15
2023-02-14T14:08:21.198Z,92.67
2023-02-14T14:10:55.501Z,93.04
2023-02-14T14:13:40.284Z,92.94
2023-02-14T14:16:26.700Z,93.09
2023-02-14T14:19:21.904Z,92.22
2023-02-14T14:22:07.309Z,92.31
2023-02-14T14:24:39.414Z,92.35
2023-02-14T14:27:19.480Z,92.67
2023-02-14T14:30:05.757Z,92.47
2023-02-14T14:32:38.163Z,92.35
2023-02-14T14:35:16.916Z,92.11
2023-02-14T14:37:58.921Z,92.43
2023-02-14T14:40:34.614Z,92.35
2023-02-14T14:43:14.157Z,93.46
2023-02-14T14:45:41.744Z,93.43
2023-02-14T14:48:17.236Z,93.28
2023-02-14T14:50:46.242Z,93.89
2023-02-14T14:53:29.284Z,94.25
2023-02-14T14:55:56.818Z,94.51
2023-02-14T14:58:38.852Z,95.01
2023-02-14T15:01:08.727Z,94.87
2023-02-14T15:03:35.293Z,94.75
2023-02-14T15:06:07.527Z,94.96
2023-02-14T15:08:35.211Z,94.51
2023-02-14T15:11:42.998Z,94.59
2023-02-14T15:14:24.350Z,94.38
2023-02-14T15:16:53.900Z,93.71
2023-02-14T15:19:34.418Z,94.03
2023-02-14T15:22:07.487Z,94.18
2023-02-14T15:24:37.757Z,94.38
2023-02-14T15:27:04.936Z,94.58
2023-02-14T15:29:33.064Z,94.80
2023-02-14T15:32:03.160Z,94.72
2023-02-14T15:34:38.244Z,94.71
2023-02-14T15:37:07.073Z,95.09
2023-02-14T15:39:40.064Z,95.48
2023-02-14T15:42:06.649Z,95.84
2023-02-14T15:44:33.274Z,95.91
2023-02-14T15:47:03.223Z,96.47
2023-02-14T15:49:41.237Z,96.58
2023-02-14T15:52:07.872Z,96.67
2023-02-14T15:54:41.352Z,97.28
2023-02-14T15:57:19.976Z,97.67
2023-02-14T15:59:46.931Z,98.69
2023-02-14T16:02:48.906Z,98.58
2023-02-14T16:05:24.525Z,98.88
2023-02-14T16:08:03.625Z,98.87
2023-02-14T16:10:35.775Z,98.71
2023-02-14T16:13:19.050Z,98.58
2023-02-14T16:16:01.950Z,98.50
2023-02-14T16:18:43.142Z,98.48
2023-02-14T16:21:35.067Z,98.43
2023-02-14T16:24:08.058Z,98.34
2023-02-14T16:26:37.954Z,98.13
2023-02-14T16:29:10.611Z,98.19
2023-02-14T16:32:01.238Z,97.85
2023-02-14T16:34:31.704Z,97.86
2023-02-14T16:36:58.262Z,97.92
2023-02-14T16:39:26.488Z,98.07
2023-02-14T16:41:56.368Z,98.15
2023-02-14T16:44:22.855Z,97.91
2023-02-14T16:46:49.589Z,97.39
2023-02-14T16:49:17.136Z,97.59
2023-02-14T16:51:59.850Z,97.40
2023-02-14T16:54:28.848Z,97.85
2023-02-14T16:57:01.776Z,98.16
2023-02-14T16:59:28.354Z,97.97
2023-02-14T17:01:57.428Z,98.31
2023-02-14T17:04:27.284Z,97.89
2023-02-14T17:06:57.135Z,98.25
2023-02-14T17:09:32.075Z,97.73
2023-02-14T17:12:03.442Z,97.84
2023-02-14T17:14:36.881Z,98.13
2023-02-14T17:17:03.806Z,98.66
2023-02-14T17:19:31.994Z,99.00
2023-02-14T17:21:59.327Z,99.58
2023-02-14T17:24:26.163Z,99.25
2023-02-14T17:26:52.919Z,99.19
2023-02-14T17:29:19.716Z,99.65
2023-02-14T17:31:46.648Z,99.51
2023-02-14T17:34:13.317Z,99.90
2023-02-14T17:36:39.781Z,100.00
2023-02-14T17:39:06.496Z,100.00
2023-02-14T17:41:33.172Z,100.00
2023-02-14T17:44:01.765Z,100.00
2023-02-14T17:46:33.517Z,100.00
2023-02-14T17:49:02.633Z,100.00
2023-02-14T17:51:29.566Z,100.00
2023-02-14T17:53:58.985Z,100.00
2023-02-14T17:56:27.016Z,100.00
2023-02-14T17:58:55.165Z,100.00
2023-02-14T18:01:25.358Z,100.00
2023-02-14T18:03:53.801Z,100.00
2023-02-14T18:06:22.944Z,100.00
2023-02-14T18:08:53.097Z,100.00
2023-02-14T18:11:21.745Z,100.00
2023-02-14T18:13:48.679Z,100.00
2023-02-14T18:16:18.453Z,100.00
2023-02-14T18:18:45.575Z,100.00
2023-02-14T18:21:14.334Z,100.00
2023-02-14T18:23:41.803Z,99.84
2023-02-14T18:26:12.379Z,100.00
2023-02-14T18:28:39.487Z,99.27
2023-02-14T18:31:09.549Z,98.60
2023-02-14T18:33:36.716Z,98.80
2023-02-14T18:36:06.988Z,99.40
2023-02-14T18:38:34.559Z,99.39
2023-02-14T18:41:08.881Z,99.18
2023-02-14T18:43:37.178Z,98.95
2023-02-14T18:46:31.605Z,98.54
2023-02-14T18:48:58.939Z,98.43
2023-02-14T18:51:28.881Z,97.47
2023-02-14T18:53:57.706Z,96.57
2023-02-14T18:56:29.010Z,96.70
2023-02-14T18:58:59.280Z,97.24
2023-02-14T19:01:29.260Z,96.12
2023-02-14T19:03:56.949Z,95.44
2023-02-14T19:06:23.643Z,95.51
2023-02-14T19:08:50.296Z,95.46
2023-02-14T19:11:20.639Z,95.00
2023-02-14T19:13:51.062Z,95.15
2023-02-14T19:16:27.285Z,95.38
2023-02-14T19:18:54.571Z,95.94
2023-02-14T19:21:27.138Z,96.13
2023-02-14T19:23:57.582Z,96.29
2023-02-14T19:26:26.701Z,96.34
2023-02-14T19:28:59.027Z,96.12
2023-02-14T19:31:26.568Z,96.10
2023-02-14T19:33:54.304Z,96.69
2023-02-14T19:36:24.840Z,96.77
2023-02-14T19:38:53.377Z,96.12
2023-02-14T19:41:30.577Z,96.37
2023-02-14T19:44:01.823Z,96.80
2023-02-14T19:46:29.164Z,96.32
2023-02-14T19:48:57.451Z,95.72
2023-02-14T19:51:25.798Z,95.57
2023-02-14T19:53:53.408Z,94.89
2023-02-14T19:56:22.232Z,95.31
2023-02-14T19:58:50.423Z,96.01
2023-02-14T20:01:24.432Z,95.17
2023-02-14T20:03:52.570Z,95.41
2023-02-14T20:06:20.924Z,96.03
2023-02-14T20:08:47.757Z,95.53
2023-02-14T20:11:32.811Z,96.15
2023-02-14T20:14:00.685Z,95.46
2023-02-14T20:16:29.345Z,96.17
2023-02-14T20:18:56.855Z,95.67
2023-02-14T20:21:28.488Z,95.48
2023-02-14T20:24:00.875Z,95.52
2023-02-14T20:26:32.610Z,96.36
2023-02-14T20:29:00.654Z,96.24
2023-02-14T20:31:27.388Z,96.38
2023-02-14T20:33:56.210Z,96.67
2023-02-14T20:36:23.163Z,96.58
2023-02-14T20:38:56.527Z,96.38
2023-02-14T20:41:23.545Z,96.25
2023-02-14T20:43:50.507Z,96.43
2023-02-14T20:46:17.052Z,96.51
2023-02-14T20:48:43.789Z,96.98
2023-02-14T20:51:18.760Z,97.18
2023-02-14T20:53:46.162Z,97.33
2023-02-14T20:56:13.929Z,97.62
2023-02-14T20:58:41.621Z,97.58
2023-02-14T21:01:15.539Z,97.53
2023-02-14T21:03:46.821Z,96.83
2023-02-14T21:06:16.450Z,97.19
2023-02-14T21:08:44.181Z,97.32
2023-02-14T21:11:13.251Z,97.18
2023-02-14T21:13:40.383Z,97.14
2023-02-14T21:16:15.022Z,97.46
2023-02-14T21:18:42.914Z,97.38
2023-02-14T21:21:15.387Z,96.89
2023-02-14T21:23:42.177Z,96.91
2023-02-14T21:26:10.402Z,97.21
2023-02-14T21:28:36.908Z,96.95
2023-02-14T21:31:09.396Z,97.35
2023-02-14T21:33:37.016Z,97.77
2023-02-14T21:36:14.157Z,98.12
2023-02-14T21:38:41.317Z,98.08
2023-02-14T21:41:19.618Z,98.26
2023-02-14T21:43:48.792Z,97.68
2023-02-14T21:46:27.054Z,97.92
2023-02-14T21:49:13.944Z,97.72
2023-02-14T21:51:41.341Z,98.04
2023-02-14T21:54:08.892Z,98.20
2023-02-14T21:56:37.001Z,98.29
2023-02-14T21:59:04.503Z,98.87
2023-02-14T22:01:33.592Z,98.27
2023-02-14T22:04:01.172Z,98.08
2023-02-14T22:06:28.821Z,98.18
2023-02-14T22:08:57.174Z,97.84
2023-02-14T22:11:25.348Z,98.34
2023-02-14T22:13:51.946Z,98.01
2023-02-14T22:16:20.249Z,98.10
2023-02-14T22:18:49.464Z,98.42
2023-02-14T22:21:21.882Z,98.27
2023-02-14T22:23:50.221Z,98.26
2023-02-14T22:26:20.284Z,97.95
2023-02-14T22:28:48.434Z,98.11
2023-02-14T22:31:17.325Z,97.75
2023-02-14T22:33:44.604Z,97.88
2023-02-14T22:36:11.280Z,98.55
2023-02-14T22:38:38.268Z,98.65
2023-02-14T22:41:10.250Z,99.09
2023-02-14T22:43:40.326Z,98.69
2023-02-14T22:46:12.321Z,98.72
2023-02-14T22:48:39.538Z,98.80
2023-02-14T22:51:37.834Z,98.73
2023-02-14T22:54:12.328Z,98.43
2023-02-14T22:56:51.181Z,98.31
2023-02-14T22:59:25.082Z,98.35
2023-02-14T23:01:53.007Z,98.38
2023-02-14T23:04:22.080Z,98.11
2023-02-14T23:06:49.159Z,98.22
2023-02-14T23:09:15.920Z,98.61
2023-02-14T23:11:44.616Z,98.41
2023-02-14T23:14:32.232Z,98.50
2023-02-14T23:17:17.432Z,98.30
2023-02-14T23:20:03.606Z,98.64
2023-02-14T23:22:33.345Z,98.66
2023-02-14T23:25:01.927Z,98.57
2023-02-14T23:27:36.519Z,98.63
2023-02-14T23:30:05.553Z,98.34
2023-02-14T23:32:33.273Z,98.54
2023-02-14T23:34:59.800Z,98.50
2023-02-14T23:37:27.060Z,98.44
2023-02-14T23:39:53.935Z,98.81
2023-02-14T23:42:20.613Z,98.58
2023-02-14T23:44:47.539Z,98.99
2023-02-14T23:47:15.350Z,98.91
2023-02-14T23:49:42.603Z,98.81
2023-02-14T23:52:11.567Z,99.02
2023-02-14T23:54:38.491Z,98.84
2023-02-14T23:57:07.476Z,98.56
2023-02-14T23:59:34.871Z,98.67
